createdAt,value
2022-09-01T00:01:42.290Z,3.60
2022-09-01T00:04:12.869Z,3.80
2022-09-01T00:06:41.051Z,3.50
2022-09-01T00:09:11.623Z,3.30
2022-09-01T00:11:40.406Z,3.47
2022-09-01T00:14:29.683Z,3.50
2022-09-01T00:16:58.843Z,3.10
2022-09-01T00:19:25.666Z,3.47
2022-09-01T00:21:52.634Z,3.80
2022-09-01T00:24:19.914Z,3.27
2022-09-01T00:26:47.678Z,3.80
2022-09-01T00:29:15.597Z,3.70
2022-09-01T00:31:42.742Z,3.70
2022-09-01T00:34:10.009Z,3.73
2022-09-01T00:36:37.250Z,4.00
2022-09-01T00:39:05.082Z,3.40
2022-09-01T00:41:34.930Z,4.07
2022-09-01T00:44:05.562Z,3.63
2022-09-01T00:46:37.015Z,3.70
2022-09-01T00:49:27.147Z,4.10
2022-09-01T00:51:59.148Z,3.70
2022-09-01T00:54:30.877Z,4.10
2022-09-01T00:56:58.638Z,3.83
2022-09-01T00:59:26.807Z,4.33
2022-09-01T01:01:55.270Z,3.63
2022-09-01T01:04:23.056Z,4.43
2022-09-01T01:06:59.025Z,3.90
2022-09-01T01:09:29.762Z,3.73
2022-09-01T01:11:59.500Z,3.83
2022-09-01T01:14:32.550Z,3.90
2022-09-01T01:17:01.195Z,4.40
2022-09-01T01:20:01.252Z,4.10
2022-09-01T01:23:03.830Z,4.10
2022-09-01T01:25:33.047Z,4.23
2022-09-01T01:28:18.866Z,3.90
2022-09-01T01:30:52.259Z,4.30
2022-09-01T01:33:21.857Z,4.60
2022-09-01T01:35:52.363Z,4.10
2022-09-01T01:38:23.618Z,4.60
2022-09-01T01:40:51.942Z,4.67
2022-09-01T01:43:23.344Z,4.97
2022-09-01T01:45:53.688Z,4.83
2022-09-01T01:48:24.625Z,4.53
2022-09-01T01:50:58.181Z,5.03
2022-09-01T01:53:25.456Z,4.23
2022-09-01T01:55:52.483Z,5.10
2022-09-01T01:58:21.699Z,5.43
2022-09-01T02:00:51.948Z,5.60
2022-09-01T02:03:22.301Z,6.63
2022-09-01T02:05:51.439Z,8.63
2022-09-01T02:08:21.011Z,9.77
2022-09-01T02:10:50.407Z,11.87
2022-09-01T02:13:19.782Z,10.53
2022-09-01T02:15:53.926Z,11.07
2022-09-01T02:18:28.621Z,9.83
2022-09-01T02:20:59.121Z,8.30
2022-09-01T02:23:26.226Z,7.13
2022-09-01T02:26:17.454Z,7.10
2022-09-01T02:28:54.212Z,6.43
2022-09-01T02:31:23.799Z,5.73
2022-09-01T02:33:51.084Z,6.63
2022-09-01T02:36:19.813Z,5.70
2022-09-01T02:38:53.336Z,6.37
2022-09-01T02:41:27.298Z,5.97
2022-09-01T02:43:54.377Z,6.10
2022-09-01T02:46:24.619Z,5.87
2022-09-01T02:48:52.735Z,6.03
2022-09-01T02:51:22.731Z,6.07
2022-09-01T02:53:52.991Z,6.80
2022-09-01T02:56:25.916Z,6.30
2022-09-01T02:58:53.513Z,6.00
2022-09-01T03:01:25.540Z,5.73
2022-09-01T03:03:55.893Z,5.73
2022-09-01T03:06:24.751Z,5.93
2022-09-01T03:08:54.829Z,5.60
2022-09-01T03:11:25.019Z,5.63
2022-09-01T03:13:52.690Z,6.37
2022-09-01T03:16:20.108Z,5.33
2022-09-01T03:18:47.236Z,5.60
2022-09-01T03:21:16.310Z,5.80
2022-09-01T03:23:45.509Z,5.93
2022-09-01T03:26:14.186Z,6.67
2022-09-01T03:28:41.866Z,6.83
2022-09-01T03:31:09.178Z,5.77
2022-09-01T03:33:37.021Z,5.97
2022-09-01T03:36:14.826Z,5.87
2022-09-01T03:38:44.282Z,6.00
2022-09-01T03:41:13.556Z,5.70
2022-09-01T03:43:45.966Z,5.60
2022-09-01T03:46:21.928Z,5.70
2022-09-01T03:48:55.873Z,5.63
2022-09-01T03:51:24.481Z,5.80
2022-09-01T03:53:56.967Z,5.97
2022-09-01T03:56:27.576Z,5.47
2022-09-01T03:59:00.456Z,6.00
2022-09-01T04:01:29.714Z,6.17
2022-09-01T04:03:57.313Z,5.73
2022-09-01T04:06:24.707Z,5.93
2022-09-01T04:09:03.142Z,5.97
2022-09-01T04:11:32.007Z,5.93
2022-09-01T04:13:59.383Z,5.63
2022-09-01T04:16:48.313Z,6.10
2022-09-01T04:19:20.558Z,5.67
2022-09-01T04:21:52.394Z,5.77
2022-09-01T04:24:20.702Z,6.17
2022-09-01T04:26:50.010Z,6.43
2022-09-01T04:29:19.491Z,6.03
2022-09-01T04:31:52.291Z,6.33
2022-09-01T04:34:24.172Z,6.87
2022-09-01T04:36:54.637Z,6.67
2022-09-01T04:39:22.408Z,5.23
2022-09-01T04:41:50.671Z,6.17
2022-09-01T04:44:19.340Z,6.47
2022-09-01T04:46:50.654Z,6.10
2022-09-01T04:49:22.330Z,6.30
2022-09-01T04:51:53.882Z,6.23
2022-09-01T04:54:23.046Z,6.03
2022-09-01T04:56:51.434Z,6.10
2022-09-01T04:59:22.192Z,4.83
2022-09-01T05:01:50.999Z,7.00
2022-09-01T05:04:19.807Z,5.93
2022-09-01T05:06:49.662Z,6.87
2022-09-01T05:09:19.003Z,6.20
2022-09-01T05:11:48.638Z,6.17
2022-09-01T05:14:19.359Z,5.80
2022-09-01T05:16:47.172Z,6.20
2022-09-01T05:19:17.708Z,6.07
2022-09-01T05:21:46.507Z,5.53
2022-09-01T05:24:19.838Z,6.37
2022-09-01T05:26:47.569Z,6.57
2022-09-01T05:29:17.889Z,5.10
2022-09-01T05:31:50.320Z,5.20
2022-09-01T05:34:26.499Z,5.77
2022-09-01T05:36:59.206Z,5.30
2022-09-01T05:39:27.369Z,5.50
2022-09-01T05:41:54.534Z,5.10
2022-09-01T05:44:27.673Z,5.17
2022-09-01T05:46:55.917Z,5.63
2022-09-01T05:49:24.833Z,4.80
2022-09-01T05:51:53.384Z,5.63
2022-09-01T05:54:36.168Z,4.80
2022-09-01T05:57:23.324Z,5.23
2022-09-01T05:59:54.211Z,5.20
2022-09-01T06:02:23.739Z,5.20
2022-09-01T06:04:53.029Z,5.87
2022-09-01T06:07:25.435Z,4.77
2022-09-01T06:09:53.919Z,6.40
2022-09-01T06:12:25.286Z,4.80
2022-09-01T06:14:56.791Z,4.90
2022-09-01T06:17:36.717Z,4.33
2022-09-01T06:20:11.115Z,4.47
2022-09-01T06:22:40.560Z,5.00
2022-09-01T06:25:14.474Z,4.33
2022-09-01T06:27:45.197Z,4.20
2022-09-01T06:30:48.796Z,3.80
2022-09-01T06:33:17.956Z,4.17
2022-09-01T06:35:47.746Z,4.73
2022-09-01T06:38:20.939Z,3.50
2022-09-01T06:40:51.159Z,3.83
2022-09-01T06:43:25.894Z,3.50
2022-09-01T06:45:55.658Z,3.63
2022-09-01T06:48:31.452Z,2.90
2022-09-01T06:51:21.724Z,3.15
2022-09-01T06:53:53.411Z,3.35
2022-09-01T06:56:23.338Z,3.30
2022-09-01T06:58:53.873Z,2.63
2022-09-01T07:01:29.227Z,3.00
2022-09-01T07:03:59.859Z,3.25
2022-09-01T07:12:28.942Z,2.53
2022-09-01T07:17:52.538Z,2.40
2022-09-01T07:21:02.857Z,2.53
2022-09-01T07:23:27.737Z,2.47
2022-09-01T07:26:02.741Z,2.60
2022-09-01T07:31:50.125Z,2.03
2022-09-01T07:39:51.923Z,2.28
2022-09-01T07:47:59.499Z,1.98
2022-09-01T07:53:29.942Z,2.10
2022-09-01T07:56:00.924Z,2.63
2022-09-01T07:58:33.747Z,1.58
2022-09-01T08:01:02.692Z,1.40
2022-09-01T08:03:30.686Z,1.67
2022-09-01T08:06:09.770Z,1.73
2022-09-01T08:08:38.630Z,1.67
2022-09-01T08:11:06.350Z,1.95
2022-09-01T08:13:41.659Z,1.35
2022-09-01T08:16:19.523Z,1.65
2022-09-01T08:18:56.668Z,1.50
2022-09-01T08:21:24.691Z,1.48
2022-09-01T08:23:53.489Z,1.70
2022-09-01T08:26:24.234Z,1.52
2022-09-01T08:28:55.420Z,1.85
2022-09-01T08:31:24.205Z,1.55
2022-09-01T08:33:52.266Z,1.75
2022-09-01T08:36:24.007Z,1.40
2022-09-01T08:38:53.470Z,1.60
2022-09-01T08:41:47.525Z,1.60
2022-09-01T08:45:03.609Z,1.55
2022-09-01T08:47:43.756Z,1.58
2022-09-01T08:50:29.296Z,1.15
2022-09-01T08:53:17.467Z,1.00
2022-09-01T08:55:49.470Z,1.00
2022-09-01T08:58:19.212Z,0.82
2022-09-01T09:00:57.919Z,1.02
2022-09-01T09:03:45.334Z,1.80
2022-09-01T09:06:40.722Z,1.23
2022-09-01T09:09:09.847Z,0.80
2022-09-01T09:11:59.358Z,1.05
2022-09-01T09:14:51.161Z,1.10
2022-09-01T09:17:23.238Z,1.00
2022-09-01T09:19:53.299Z,1.52
2022-09-01T09:22:21.482Z,1.00
2022-09-01T09:24:52.741Z,1.13
2022-09-01T09:27:41.251Z,1.85
2022-09-01T09:30:28.874Z,1.40
2022-09-01T09:35:57.783Z,0.88
2022-09-01T09:38:34.129Z,1.08
2022-09-01T09:41:25.667Z,1.05
2022-09-01T09:43:59.025Z,1.00
2022-09-01T09:46:35.470Z,0.93
2022-09-01T09:49:13.495Z,0.80
2022-09-01T09:51:47.839Z,1.20
2022-09-01T09:54:27.977Z,1.00
2022-09-01T09:57:04.890Z,1.08
2022-09-01T10:00:01.394Z,1.20
2022-09-01T10:02:51.115Z,1.00
2022-09-01T10:05:48.787Z,1.30
2022-09-01T10:08:49.324Z,1.08
2022-09-01T10:11:36.013Z,0.98
2022-09-01T10:14:35.822Z,1.08
2022-09-01T10:17:16.221Z,1.00
2022-09-01T10:20:06.212Z,1.20
2022-09-01T10:22:35.855Z,1.08
2022-09-01T10:25:05.696Z,0.98
2022-09-01T10:27:41.112Z,0.80
2022-09-01T10:30:20.260Z,0.90
2022-09-01T10:33:06.992Z,1.02
2022-09-01T10:35:44.927Z,1.05
2022-09-01T10:38:22.078Z,0.88
2022-09-01T10:41:07.719Z,0.90
2022-09-01T10:43:53.006Z,0.90
2022-09-01T10:46:26.554Z,1.45
2022-09-01T10:49:02.910Z,1.08
2022-09-01T10:51:38.952Z,0.90
2022-09-01T10:54:07.792Z,0.70
2022-09-01T10:56:51.625Z,0.80
2022-09-01T10:59:40.287Z,0.80
2022-09-01T11:02:24.845Z,1.00
2022-09-01T11:05:00.359Z,1.00
2022-09-01T11:08:00.116Z,1.13
2022-09-01T11:10:34.363Z,1.17
2022-09-01T11:13:32.522Z,0.98
2022-09-01T11:16:52.110Z,1.20
2022-09-01T11:19:39.889Z,0.90
2022-09-01T11:22:26.380Z,0.90
2022-09-01T11:25:12.613Z,0.93
2022-09-01T11:27:49.309Z,1.20
2022-09-01T11:30:25.502Z,1.10
2022-09-01T11:33:00.696Z,1.15
2022-09-01T11:35:32.223Z,0.90
2022-09-01T11:38:08.185Z,1.10
2022-09-01T11:40:37.520Z,1.50
2022-09-01T11:43:12.450Z,1.02
2022-09-01T11:45:54.633Z,1.05
2022-09-01T11:48:25.246Z,0.90
2022-09-01T11:51:03.249Z,0.90
2022-09-01T11:53:30.488Z,0.93
2022-09-01T11:56:22.096Z,1.30
2022-09-01T11:58:49.375Z,1.02
2022-09-01T12:01:20.798Z,1.20
2022-09-01T12:03:53.477Z,1.00
2022-09-01T12:06:24.533Z,1.20
2022-09-01T12:09:06.061Z,1.00
2022-09-01T12:11:39.323Z,1.10
2022-09-01T12:14:11.672Z,1.00
2022-09-01T12:16:42.468Z,1.00
2022-09-01T12:19:30.815Z,0.90
2022-09-01T12:22:17.001Z,0.95
2022-09-01T12:24:55.196Z,1.05
2022-09-01T12:27:30.649Z,0.77
2022-09-01T12:30:01.636Z,0.98
2022-09-01T12:32:28.794Z,0.80
2022-09-01T12:35:10.827Z,0.90
2022-09-01T12:37:41.403Z,1.10
2022-09-01T12:40:41.777Z,1.70
2022-09-01T12:43:08.823Z,0.93
2022-09-01T12:45:47.932Z,1.00
2022-09-01T12:48:31.491Z,1.50
2022-09-01T12:51:03.010Z,1.13
2022-09-01T12:53:36.684Z,1.30
2022-09-01T12:56:33.480Z,1.00
2022-09-01T12:59:35.983Z,0.93
2022-09-01T13:02:27.757Z,1.17
2022-09-01T13:04:55.052Z,1.00
2022-09-01T13:07:25.140Z,0.90
2022-09-01T13:09:52.074Z,0.82
2022-09-01T13:12:21.691Z,0.93
2022-09-01T13:14:48.933Z,0.90
2022-09-01T13:17:16.461Z,0.90
2022-09-01T13:19:46.239Z,1.00
2022-09-01T13:22:13.235Z,0.88
2022-09-01T13:24:41.585Z,0.90
2022-09-01T13:27:26.681Z,1.80
2022-09-01T13:29:54.566Z,2.25
2022-09-01T13:32:22.850Z,1.20
2022-09-01T13:34:53.948Z,1.00
2022-09-01T13:37:22.057Z,1.10
2022-09-01T13:39:50.016Z,0.85
2022-09-01T13:42:17.799Z,1.00
2022-09-01T13:44:49.621Z,1.55
2022-09-01T13:47:33.476Z,0.90
2022-09-01T13:50:11.050Z,1.30
2022-09-01T13:52:40.637Z,1.33
2022-09-01T13:55:10.775Z,0.82
2022-09-01T13:57:38.525Z,2.78
2022-09-01T14:00:10.957Z,1.67
2022-09-01T14:02:49.115Z,1.00
2022-09-01T14:05:23.996Z,1.10
2022-09-01T14:07:51.892Z,1.20
2022-09-01T14:10:20.601Z,0.90
2022-09-01T14:12:49.001Z,1.05
2022-09-01T14:15:26.977Z,1.20
2022-09-01T14:18:01.760Z,1.10
2022-09-01T14:20:38.099Z,0.90
2022-09-01T14:23:13.646Z,0.80
2022-09-01T14:25:51.498Z,0.93
2022-09-01T14:28:29.961Z,1.30
2022-09-01T14:31:29.364Z,1.13
2022-09-01T14:34:11.977Z,1.40
2022-09-01T14:36:47.548Z,1.27
2022-09-01T14:39:25.320Z,0.82
2022-09-01T14:42:00.421Z,0.90
2022-09-01T14:44:56.884Z,1.05
2022-09-01T14:47:28.129Z,1.20
2022-09-01T14:49:58.944Z,0.90
2022-09-01T14:52:25.859Z,1.08
2022-09-01T14:54:53.259Z,0.93
2022-09-01T14:57:37.139Z,1.20
2022-09-01T15:00:12.237Z,1.02
2022-09-01T15:02:40.969Z,1.23
2022-09-01T15:05:09.254Z,1.30
2022-09-01T15:07:36.818Z,1.27
2022-09-01T15:10:09.991Z,1.10
2022-09-01T15:12:50.449Z,1.17
2022-09-01T15:15:20.669Z,0.80
2022-09-01T15:17:53.004Z,1.10
2022-09-01T15:20:39.110Z,1.00
2022-09-01T15:23:06.776Z,1.23
2022-09-01T15:25:34.158Z,1.20
2022-09-01T15:28:03.722Z,1.42
2022-09-01T15:30:31.599Z,1.00
2022-09-01T15:32:58.672Z,0.80
2022-09-01T15:35:28.683Z,0.90
2022-09-01T15:37:56.312Z,1.00
2022-09-01T15:40:24.940Z,1.10
2022-09-01T15:43:34.057Z,1.08
2022-09-01T15:46:04.780Z,1.15
2022-09-01T15:48:31.922Z,1.30
2022-09-01T15:51:29.275Z,1.20
2022-09-01T15:54:23.600Z,1.00
2022-09-01T15:56:58.293Z,1.30
2022-09-01T15:59:31.032Z,1.40
2022-09-01T16:01:58.916Z,1.05
2022-09-01T16:04:28.157Z,1.48
2022-09-01T16:06:56.761Z,1.00
2022-09-01T16:09:27.154Z,1.15
2022-09-01T16:11:55.272Z,1.60
2022-09-01T16:14:32.236Z,1.40
2022-09-01T16:17:26.948Z,1.52
2022-09-01T16:20:06.449Z,1.02
2022-09-01T16:23:05.024Z,1.50
2022-09-01T16:25:34.938Z,1.25
2022-09-01T16:28:46.223Z,1.38
2022-09-01T16:31:18.151Z,1.25
2022-09-01T16:33:59.683Z,1.00
2022-09-01T16:36:33.199Z,1.33
2022-09-01T16:39:24.619Z,1.00
2022-09-01T16:42:39.974Z,0.90
2022-09-01T16:45:56.612Z,1.08
2022-09-01T16:49:30.550Z,1.10
2022-09-01T16:53:33.192Z,1.70
2022-09-01T16:56:24.894Z,1.55
2022-09-01T17:02:49.591Z,1.00
2022-09-01T17:05:49.449Z,1.33
2022-09-01T17:12:34.410Z,1.17
2022-09-01T17:15:10.488Z,1.25
2022-09-01T17:18:01.700Z,1.30
2022-09-01T17:20:54.920Z,1.13
2022-09-01T17:23:34.920Z,1.08
2022-09-01T17:26:33.528Z,1.40
2022-09-01T17:33:17.209Z,1.00
2022-09-01T17:42:23.927Z,1.40
2022-09-01T17:45:29.882Z,1.38
2022-09-01T17:48:05.219Z,1.10
2022-09-01T17:51:01.074Z,1.20
2022-09-01T17:53:54.869Z,1.20
2022-09-01T17:56:40.750Z,1.48
2022-09-01T17:59:29.542Z,1.38
2022-09-01T18:02:16.332Z,1.38
2022-09-01T18:05:01.815Z,1.25
2022-09-01T18:07:38.736Z,1.00
2022-09-01T18:10:12.823Z,1.13
2022-09-01T18:12:46.900Z,1.00
2022-09-01T18:15:26.706Z,1.25
2022-09-01T18:18:27.688Z,1.10
2022-09-01T18:21:13.983Z,1.10
2022-09-01T18:23:43.083Z,1.30
2022-09-01T18:26:14.954Z,1.40
2022-09-01T18:28:46.922Z,1.00
2022-09-01T18:31:36.053Z,1.60
2022-09-01T18:34:30.926Z,1.20
2022-09-01T18:37:23.016Z,1.38
2022-09-01T18:40:29.029Z,1.30
2022-09-01T18:43:25.334Z,1.33
2022-09-01T18:52:44.636Z,1.40
2022-09-01T18:55:24.903Z,1.58
2022-09-01T18:58:14.503Z,1.30
2022-09-01T19:00:57.057Z,1.25
2022-09-01T19:03:41.560Z,1.30
2022-09-01T19:07:03.907Z,1.55
2022-09-01T19:09:43.855Z,1.55
2022-09-01T19:12:33.316Z,1.80
2022-09-01T19:15:18.447Z,1.33
2022-09-01T19:18:28.021Z,1.50
2022-09-01T19:21:17.739Z,1.40
2022-09-01T19:23:59.549Z,1.73
2022-09-01T19:26:37.457Z,1.38
2022-09-01T19:29:33.384Z,1.27
2022-09-01T19:32:09.286Z,1.20
2022-09-01T19:35:06.294Z,1.30
2022-09-01T19:37:33.986Z,1.30
2022-09-01T19:40:01.492Z,1.50
2022-09-01T19:42:30.960Z,1.15
2022-09-01T19:45:14.375Z,1.50
2022-09-01T19:48:10.690Z,1.40
2022-09-01T19:50:47.980Z,1.30
2022-09-01T19:53:55.670Z,1.70
2022-09-01T19:56:33.035Z,1.33
2022-09-01T19:59:28.251Z,1.50
2022-09-01T20:02:09.236Z,2.15
2022-09-01T20:04:42.323Z,1.20
2022-09-01T20:07:53.383Z,1.50
2022-09-01T20:10:38.617Z,1.42
2022-09-01T20:13:33.294Z,1.70
2022-09-01T20:16:17.825Z,1.60
2022-09-01T20:19:03.542Z,1.45
2022-09-01T20:21:32.652Z,2.10
2022-09-01T20:24:11.788Z,1.50
2022-09-01T20:27:00.481Z,1.60
2022-09-01T20:29:43.842Z,1.67
2022-09-01T20:32:39.710Z,1.70
2022-09-01T20:35:26.930Z,1.20
2022-09-01T20:38:06.839Z,1.70
2022-09-01T20:44:08.127Z,1.40
2022-09-01T20:46:35.429Z,1.50
2022-09-01T20:49:06.933Z,1.40
2022-09-01T20:51:47.798Z,1.80
2022-09-01T20:54:43.056Z,1.27
2022-09-01T20:57:23.181Z,1.30
2022-09-01T20:59:58.291Z,1.40
2022-09-01T21:02:29.871Z,1.33
2022-09-01T21:05:25.151Z,1.30
2022-09-01T21:08:29.659Z,1.50
2022-09-01T21:11:08.691Z,1.83
2022-09-01T21:13:57.256Z,1.40
2022-09-01T21:16:36.640Z,1.70
2022-09-01T21:19:22.539Z,1.30
2022-09-01T21:22:12.705Z,1.33
2022-09-01T21:24:42.355Z,1.80
2022-09-01T21:27:26.837Z,1.70
2022-09-01T21:30:10.044Z,1.27
2022-09-01T21:32:38.058Z,1.20
2022-09-01T21:35:08.895Z,1.17
2022-09-01T21:37:36.743Z,1.43
2022-09-01T21:40:05.645Z,1.30
2022-09-01T21:42:47.628Z,1.70
2022-09-01T21:45:17.496Z,1.20
2022-09-01T21:47:49.320Z,1.20
2022-09-01T21:50:19.564Z,1.20
2022-09-01T21:52:47.015Z,1.40
2022-09-01T21:55:24.591Z,1.30
2022-09-01T21:57:52.683Z,1.57
2022-09-01T22:00:33.380Z,1.43
2022-09-01T22:03:04.445Z,1.07
2022-09-01T22:05:33.748Z,1.40
2022-09-01T22:08:02.488Z,1.20
2022-09-01T22:10:32.101Z,1.20
2022-09-01T22:13:05.765Z,1.10
2022-09-01T22:15:42.954Z,1.40
2022-09-01T22:18:13.782Z,1.20
2022-09-01T22:20:41.448Z,1.63
2022-09-01T22:23:09.329Z,1.30
2022-09-01T22:25:43.159Z,1.30
2022-09-01T22:28:10.974Z,1.27
2022-09-01T22:30:48.485Z,1.37
2022-09-01T22:33:20.591Z,1.23
2022-09-01T22:35:51.276Z,1.40
2022-09-01T22:38:21.801Z,1.20
2022-09-01T22:40:59.905Z,1.23
2022-09-01T22:43:34.596Z,1.40
2022-09-01T22:46:06.504Z,1.40
2022-09-01T22:48:33.843Z,1.43
2022-09-01T22:51:07.244Z,1.30
2022-09-01T22:53:44.426Z,1.40
2022-09-01T22:56:17.085Z,1.33
2022-09-01T22:58:51.394Z,1.23
2022-09-01T23:01:22.079Z,1.57
2022-09-01T23:03:59.281Z,1.40
2022-09-01T23:06:31.923Z,1.47
2022-09-01T23:09:02.220Z,1.80
2022-09-01T23:11:30.293Z,1.43
2022-09-01T23:13:57.800Z,1.57
2022-09-01T23:16:27.463Z,1.90
2022-09-01T23:18:58.101Z,1.57
2022-09-01T23:21:29.115Z,1.90
2022-09-01T23:23:58.415Z,1.60
2022-09-01T23:26:30.587Z,1.80
2022-09-01T23:29:01.383Z,1.53
2022-09-01T23:31:33.508Z,2.10
2022-09-01T23:34:01.250Z,1.70
2022-09-01T23:36:30.323Z,1.57
2022-09-01T23:38:57.984Z,1.80
2022-09-01T23:41:32.147Z,1.50
2022-09-01T23:44:02.135Z,1.70
2022-09-01T23:46:33.152Z,2.03
2022-09-01T23:49:02.279Z,1.47
2022-09-01T23:51:30.820Z,1.70
2022-09-01T23:53:58.337Z,1.53
2022-09-01T23:56:28.828Z,1.80
2022-09-01T23:58:59.598Z,1.87
